createdAt,value
2018-10-18T00:02:08.453Z,10.90
2018-10-18T00:04:37.561Z,10.90
2018-10-18T00:07:07.168Z,10.90
2018-10-18T00:09:36.265Z,10.90
2018-10-18T00:12:06.327Z,10.90
2018-10-18T00:14:35.453Z,10.90
2018-10-18T00:17:09.319Z,11.00
2018-10-18T00:19:38.450Z,10.90
2018-10-18T00:22:07.543Z,10.90
2018-10-18T00:24:37.077Z,10.80
2018-10-18T00:27:06.364Z,10.80
2018-10-18T00:29:35.553Z,10.80
2018-10-18T00:32:05.958Z,10.80
2018-10-18T00:34:35.105Z,10.50
2018-10-18T00:37:04.232Z,10.40
2018-10-18T00:39:33.985Z,10.40
2018-10-18T00:42:03.195Z,10.40
2018-10-18T00:44:32.257Z,10.50
2018-10-18T00:47:01.368Z,10.50
2018-10-18T00:49:30.548Z,10.50
2018-10-18T00:51:59.692Z,10.50
2018-10-18T00:54:28.865Z,10.50
2018-10-18T00:56:57.948Z,10.50
2018-10-18T00:59:27.160Z,10.50
2018-10-18T01:01:56.319Z,10.50
2018-10-18T01:04:25.844Z,10.50
2018-10-18T01:06:55.013Z,10.50
2018-10-18T01:09:24.745Z,10.50
2018-10-18T01:11:53.921Z,10.50
2018-10-18T01:14:23.064Z,10.50
2018-10-18T01:16:56.309Z,10.30
2018-10-18T01:19:26.021Z,10.30
2018-10-18T01:21:55.228Z,10.20
2018-10-18T01:24:24.737Z,10.20
2018-10-18T01:26:54.373Z,10.20
2018-10-18T01:29:23.600Z,10.20
2018-10-18T01:31:52.764Z,10.20
2018-10-18T01:34:21.948Z,10.20
2018-10-18T01:36:51.056Z,10.20
2018-10-18T01:39:20.240Z,10.10
2018-10-18T01:41:49.365Z,10.10
2018-10-18T01:44:19.066Z,10.00
2018-10-18T01:46:48.244Z,10.00
2018-10-18T01:49:17.336Z,9.90
2018-10-18T01:51:46.465Z,10.00
2018-10-18T01:54:15.697Z,10.00
2018-10-18T01:56:44.677Z,10.00
2018-10-18T01:59:13.720Z,10.10
2018-10-18T02:01:43.349Z,10.10
2018-10-18T02:04:12.452Z,10.10
2018-10-18T02:06:41.522Z,10.10
2018-10-18T02:09:11.816Z,10.10
2018-10-18T02:11:42.216Z,10.00
2018-10-18T02:14:11.308Z,10.00
2018-10-18T02:16:40.586Z,10.00
2018-10-18T02:19:09.705Z,10.00
2018-10-18T02:21:39.141Z,10.00
2018-10-18T02:24:08.384Z,10.00
2018-10-18T02:26:37.445Z,10.00
2018-10-18T02:29:06.880Z,10.00
2018-10-18T02:31:36.296Z,9.90
2018-10-18T02:34:05.480Z,9.90
2018-10-18T02:36:34.573Z,9.90
2018-10-18T02:39:05.618Z,9.90
2018-10-18T02:41:34.688Z,10.00
2018-10-18T02:44:03.880Z,9.90
2018-10-18T02:46:33.025Z,9.90
2018-10-18T02:49:02.516Z,9.90
2018-10-18T02:51:31.605Z,9.80
2018-10-18T02:54:00.746Z,9.80
2018-10-18T02:56:29.835Z,9.70
2018-10-18T02:58:58.992Z,9.60
2018-10-18T03:01:28.097Z,9.40
2018-10-18T03:03:57.229Z,9.40
2018-10-18T03:06:26.327Z,9.40
2018-10-18T03:08:55.864Z,9.50
2018-10-18T03:11:25.033Z,9.50
2018-10-18T03:13:54.123Z,9.60
2018-10-18T03:16:23.240Z,9.60
2018-10-18T03:18:52.377Z,9.60
2018-10-18T03:21:21.492Z,9.60
2018-10-18T03:23:50.627Z,9.60
2018-10-18T03:26:19.724Z,9.60
2018-10-18T03:28:48.856Z,9.60
2018-10-18T03:31:18.368Z,9.60
2018-10-18T03:33:47.460Z,9.50
2018-10-18T03:36:17.317Z,9.60
2018-10-18T03:38:46.465Z,9.60
2018-10-18T03:41:17.342Z,9.60
2018-10-18T03:43:46.430Z,9.50
2018-10-18T03:46:15.576Z,9.50
2018-10-18T03:48:44.692Z,9.50
2018-10-18T03:51:13.811Z,9.50
2018-10-18T03:53:42.904Z,9.50
2018-10-18T03:56:12.044Z,9.50
2018-10-18T03:58:41.278Z,9.40
2018-10-18T04:01:10.340Z,9.40
2018-10-18T04:03:39.444Z,9.30
2018-10-18T04:06:09.061Z,9.20
2018-10-18T04:08:38.085Z,9.20
2018-10-18T04:11:07.161Z,9.10
2018-10-18T04:14:02.132Z,9.10
2018-10-18T04:16:31.368Z,9.10
2018-10-18T04:19:00.489Z,9.00
2018-10-18T04:21:29.912Z,9.00
2018-10-18T04:23:59.087Z,9.00
2018-10-18T04:26:28.120Z,9.00
2018-10-18T04:28:57.252Z,9.00
2018-10-18T04:31:26.520Z,9.00
2018-10-18T04:33:55.645Z,9.00
2018-10-18T04:36:24.756Z,9.00
2018-10-18T04:38:53.940Z,9.00
2018-10-18T04:41:23.100Z,9.00
2018-10-18T04:43:52.232Z,8.90
2018-10-18T04:46:21.344Z,8.90
2018-10-18T04:48:50.505Z,8.90
2018-10-18T04:51:19.979Z,8.80
2018-10-18T04:53:49.068Z,8.90
2018-10-18T04:56:18.201Z,8.90
2018-10-18T04:58:47.280Z,8.80
2018-10-18T05:01:16.646Z,8.70
2018-10-18T05:03:45.797Z,8.60
2018-10-18T05:06:14.976Z,8.60
2018-10-18T05:08:44.132Z,8.60
2018-10-18T05:11:13.334Z,8.60
2018-10-18T05:13:42.576Z,8.70
2018-10-18T05:16:11.655Z,8.60
2018-10-18T05:18:40.800Z,8.60
2018-10-18T05:21:09.920Z,8.60
2018-10-18T05:23:39.108Z,8.60
2018-10-18T05:26:08.572Z,8.60
2018-10-18T05:28:37.714Z,8.60
2018-10-18T05:31:06.971Z,8.50
2018-10-18T05:33:36.041Z,8.50
2018-10-18T05:36:05.452Z,8.50
2018-10-18T05:38:35.269Z,8.50
2018-10-18T05:41:04.401Z,8.50
2018-10-18T05:43:34.005Z,8.40
2018-10-18T05:46:03.332Z,8.40
2018-10-18T05:48:32.632Z,8.40
2018-10-18T05:51:01.780Z,8.50
2018-10-18T05:53:30.994Z,8.40
2018-10-18T05:56:00.153Z,8.30
2018-10-18T05:58:29.909Z,8.30
2018-10-18T06:00:59.169Z,8.30
2018-10-18T06:03:28.268Z,8.40
2018-10-18T06:05:57.652Z,8.40
2018-10-18T06:08:26.928Z,8.50
2018-10-18T06:11:13.211Z,8.50
2018-10-18T06:13:42.808Z,8.40
2018-10-18T06:16:11.900Z,8.50
2018-10-18T06:18:41.117Z,8.60
2018-10-18T06:21:10.304Z,8.60
2018-10-18T06:23:39.545Z,8.70
2018-10-18T06:26:08.992Z,8.80
2018-10-18T06:28:38.350Z,8.80
2018-10-18T06:31:07.568Z,8.90
2018-10-18T06:33:36.757Z,9.00
2018-10-18T06:36:05.944Z,9.00
2018-10-18T06:38:35.101Z,9.10
2018-10-18T06:41:04.420Z,9.20
2018-10-18T06:43:37.974Z,9.30
2018-10-18T06:46:11.384Z,9.40
2018-10-18T06:48:41.196Z,9.70
2018-10-18T06:51:10.827Z,10.20
2018-10-18T06:53:40.624Z,10.90
2018-10-18T06:56:09.821Z,11.70
2018-10-18T06:58:38.928Z,12.40
2018-10-18T07:01:08.117Z,13.30
2018-10-18T07:03:37.313Z,14.00
2018-10-18T07:06:06.662Z,14.50
2018-10-18T07:08:35.729Z,15.10
2018-10-18T07:11:05.105Z,15.60
2018-10-18T07:13:34.172Z,16.20
2018-10-18T07:16:03.656Z,16.40
2018-10-18T07:18:33.117Z,16.60
2018-10-18T07:21:02.313Z,17.40
2018-10-18T07:23:31.713Z,17.90
2018-10-18T07:26:00.825Z,18.40
2018-10-18T07:28:30.077Z,17.20
2018-10-18T07:30:59.416Z,15.30
2018-10-18T07:33:29.012Z,14.70
2018-10-18T07:35:58.280Z,14.80
2018-10-18T07:38:27.567Z,14.80
2018-10-18T07:40:56.877Z,16.60
2018-10-18T07:43:26.117Z,18.60
2018-10-18T07:45:55.521Z,20.20
2018-10-18T07:48:24.681Z,21.40
2018-10-18T07:50:53.912Z,22.00
2018-10-18T07:53:23.097Z,22.40
2018-10-18T07:55:52.233Z,22.20
2018-10-18T07:58:21.393Z,22.80
2018-10-18T08:00:50.670Z,23.50
2018-10-18T08:03:19.809Z,23.40
2018-10-18T08:05:49.045Z,24.00
2018-10-18T08:08:18.197Z,24.30
2018-10-18T08:10:47.579Z,24.70
2018-10-18T08:13:16.823Z,25.20
2018-10-18T08:15:45.875Z,25.40
2018-10-18T08:18:15.094Z,25.40
2018-10-18T08:20:44.264Z,26.20
2018-10-18T08:23:13.412Z,26.90
2018-10-18T08:25:42.588Z,27.50
2018-10-18T08:28:11.856Z,28.00
2018-10-18T08:30:41.028Z,28.30
2018-10-18T08:33:10.795Z,27.90
2018-10-18T08:35:39.989Z,28.20
2018-10-18T08:38:09.290Z,27.60
2018-10-18T08:40:38.469Z,27.50
2018-10-18T08:43:07.745Z,26.60
2018-10-18T08:45:36.881Z,26.50
2018-10-18T08:48:06.289Z,27.50
2018-10-18T08:50:35.405Z,25.60
2018-10-18T08:53:04.923Z,25.90
2018-10-18T08:55:34.321Z,27.60
2018-10-18T08:58:03.545Z,27.60
2018-10-18T09:00:32.817Z,29.20
2018-10-18T09:03:02.085Z,28.30
2018-10-18T09:05:31.285Z,26.10
2018-10-18T09:08:00.445Z,25.00
2018-10-18T09:10:29.656Z,24.30
2018-10-18T09:12:58.840Z,23.00
2018-10-18T09:15:28.286Z,21.50
2018-10-18T09:17:57.549Z,21.20
2018-10-18T09:20:26.672Z,21.40
2018-10-18T09:22:55.844Z,21.70
2018-10-18T09:25:25.632Z,23.80
2018-10-18T09:27:54.786Z,23.40
2018-10-18T09:30:23.978Z,24.80
2018-10-18T09:32:53.046Z,23.50
2018-10-18T09:35:22.297Z,21.60
2018-10-18T09:37:51.469Z,21.70
2018-10-18T09:40:20.980Z,21.50
2018-10-18T09:42:50.115Z,23.10
2018-10-18T09:45:19.293Z,23.90
2018-10-18T09:47:48.553Z,23.70
2018-10-18T09:50:17.745Z,23.50
2018-10-18T09:52:46.900Z,23.40
2018-10-18T09:55:16.130Z,24.40
2018-10-18T09:57:45.312Z,23.60
2018-10-18T10:00:19.797Z,23.70
2018-10-18T10:02:54.925Z,24.00
2018-10-18T10:05:24.196Z,24.30
2018-10-18T10:07:53.329Z,23.20
2018-10-18T10:10:22.509Z,24.10
2018-10-18T10:12:51.673Z,23.10
2018-10-18T10:15:21.172Z,21.60
2018-10-18T10:17:50.450Z,22.00
2018-10-18T10:20:19.501Z,22.90
2018-10-18T10:22:50.205Z,23.40
2018-10-18T10:25:19.453Z,22.90
2018-10-18T10:27:48.524Z,23.50
2018-10-18T10:30:17.844Z,25.00
2018-10-18T10:32:46.958Z,24.40
2018-10-18T10:35:16.233Z,23.80
2018-10-18T10:37:45.370Z,24.70
2018-10-18T10:40:14.637Z,24.70
2018-10-18T10:42:43.740Z,23.60
2018-10-18T10:45:13.560Z,24.20
2018-10-18T10:47:42.658Z,24.80
2018-10-18T10:50:11.844Z,24.10
2018-10-18T10:52:41.021Z,23.00
2018-10-18T10:55:11.191Z,23.60
2018-10-18T10:57:40.604Z,23.60
2018-10-18T11:00:09.836Z,22.90
2018-10-18T11:02:38.962Z,22.70
2018-10-18T11:05:09.178Z,21.40
2018-10-18T11:07:38.358Z,22.00
2018-10-18T11:10:07.640Z,22.10
2018-10-18T11:12:36.737Z,21.90
2018-10-18T11:15:06.489Z,21.60
2018-10-18T11:17:35.971Z,21.90
2018-10-18T11:20:05.205Z,22.70
2018-10-18T11:22:34.336Z,23.50
2018-10-18T11:25:03.456Z,23.80
2018-10-18T11:27:32.674Z,22.50
2018-10-18T11:30:02.554Z,23.40
2018-10-18T11:32:31.692Z,22.80
2018-10-18T11:35:00.876Z,22.50
2018-10-18T11:37:30.115Z,22.60
2018-10-18T11:39:59.753Z,22.00
2018-10-18T11:42:29.019Z,22.70
2018-10-18T11:44:58.229Z,22.50
2018-10-18T11:47:27.975Z,23.00
2018-10-18T11:49:57.859Z,22.90
2018-10-18T11:52:27.460Z,24.30
2018-10-18T11:54:56.621Z,25.40
2018-10-18T11:57:25.740Z,26.00
2018-10-18T11:59:54.979Z,24.90
2018-10-18T12:02:24.180Z,25.50
2018-10-18T12:04:53.306Z,26.30
2018-10-18T12:07:22.512Z,27.60
2018-10-18T12:09:51.679Z,27.80
2018-10-18T12:12:20.804Z,26.60
2018-10-18T12:14:51.046Z,26.90
2018-10-18T12:17:20.205Z,26.60
2018-10-18T12:19:49.461Z,27.00
2018-10-18T12:22:18.620Z,26.20
2018-10-18T12:24:47.790Z,27.60
2018-10-18T12:27:16.889Z,25.80
2018-10-18T12:29:46.289Z,26.50
2018-10-18T12:32:15.559Z,26.20
2018-10-18T12:34:44.648Z,27.20
2018-10-18T12:37:13.841Z,26.80
2018-10-18T12:39:43.293Z,26.70
2018-10-18T12:42:12.282Z,26.20
2018-10-18T12:44:41.640Z,27.20
2018-10-18T12:47:12.222Z,27.60
2018-10-18T12:49:42.441Z,26.00
2018-10-18T12:52:12.712Z,27.00
2018-10-18T12:54:42.149Z,27.10
2018-10-18T12:57:13.113Z,25.70
2018-10-18T12:59:42.366Z,25.20
2018-10-18T13:02:11.623Z,24.10
2018-10-18T13:04:40.779Z,23.00
2018-10-18T13:07:09.880Z,24.30
2018-10-18T13:09:38.976Z,25.00
2018-10-18T13:12:08.418Z,23.70
2018-10-18T13:14:37.585Z,23.10
2018-10-18T13:17:07.005Z,23.60
2018-10-18T13:19:36.132Z,23.90
2018-10-18T13:22:05.326Z,23.70
2018-10-18T13:24:34.495Z,23.70
2018-10-18T13:27:03.749Z,24.90
2018-10-18T13:29:33.129Z,25.70
2018-10-18T13:32:02.314Z,24.50
2018-10-18T13:34:31.623Z,23.30
2018-10-18T13:37:01.180Z,23.20
2018-10-18T13:39:30.456Z,23.40
2018-10-18T13:41:59.642Z,23.80
2018-10-18T13:44:28.756Z,23.50
2018-10-18T13:46:57.933Z,24.10
2018-10-18T13:49:27.064Z,24.30
2018-10-18T13:51:56.168Z,23.00
2018-10-18T13:54:25.570Z,22.60
2018-10-18T13:56:54.721Z,22.50
2018-10-18T13:59:41.009Z,22.20
2018-10-18T14:02:10.161Z,22.00
2018-10-18T14:04:39.292Z,22.00
2018-10-18T14:07:08.929Z,21.70
2018-10-18T14:09:38.052Z,21.30
2018-10-18T14:12:07.188Z,20.90
2018-10-18T14:14:36.372Z,20.80
2018-10-18T14:17:05.835Z,20.40
2018-10-18T14:19:35.114Z,20.70
2018-10-18T14:22:04.668Z,20.90
2018-10-18T14:24:33.870Z,20.70
2018-10-18T14:27:03.021Z,20.60
2018-10-18T14:29:32.213Z,20.50
2018-10-18T14:32:01.410Z,20.40
2018-10-18T14:34:30.569Z,20.00
2018-10-18T14:36:59.664Z,20.20
2018-10-18T14:39:28.812Z,20.30
2018-10-18T14:41:57.940Z,20.40
2018-10-18T14:44:27.133Z,20.50
2018-10-18T14:46:56.303Z,20.30
2018-10-18T14:49:25.449Z,20.50
2018-10-18T14:51:54.851Z,20.50
2018-10-18T14:54:24.014Z,20.80
2018-10-18T14:56:53.230Z,20.40
2018-10-18T14:59:22.433Z,20.00
2018-10-18T15:01:51.622Z,19.70
2018-10-18T15:04:20.818Z,20.00
2018-10-18T15:06:50.008Z,19.60
2018-10-18T15:09:19.116Z,19.70
2018-10-18T15:11:48.204Z,19.70
2018-10-18T15:14:17.429Z,19.70
2018-10-18T15:16:47.058Z,19.50
2018-10-18T15:19:16.465Z,19.50
2018-10-18T15:21:45.700Z,19.60
2018-10-18T15:24:14.888Z,19.70
2018-10-18T15:26:44.252Z,19.70
2018-10-18T15:29:13.249Z,19.80
2018-10-18T15:31:42.376Z,19.60
2018-10-18T15:34:11.473Z,19.50
2018-10-18T15:36:40.743Z,19.70
2018-10-18T15:39:11.370Z,19.70
2018-10-18T15:41:41.944Z,19.50
2018-10-18T15:44:11.756Z,19.00
2018-10-18T15:46:40.867Z,19.00
2018-10-18T15:49:10.077Z,19.20
2018-10-18T15:51:39.236Z,19.30
2018-10-18T15:54:08.451Z,19.20
2018-10-18T15:56:38.332Z,19.10
2018-10-18T15:59:07.628Z,19.10
2018-10-18T16:01:36.648Z,18.60
2018-10-18T16:04:06.531Z,18.50
2018-10-18T16:06:35.652Z,18.50
2018-10-18T16:09:08.853Z,18.60
2018-10-18T16:11:38.206Z,18.30
2018-10-18T16:14:07.483Z,18.20
2018-10-18T16:16:36.590Z,18.30
2018-10-18T16:19:06.313Z,18.10
2018-10-18T16:21:35.691Z,18.00
2018-10-18T16:24:05.940Z,17.90
2018-10-18T16:26:35.191Z,17.70
2018-10-18T16:29:04.371Z,17.40
2018-10-18T16:31:33.853Z,17.60
2018-10-18T16:34:03.312Z,17.50
2018-10-18T16:36:32.476Z,17.60
2018-10-18T16:39:01.756Z,17.60
2018-10-18T16:41:31.049Z,17.60
2018-10-18T16:44:00.049Z,17.50
2018-10-18T16:46:29.210Z,17.50
2018-10-18T16:48:58.496Z,17.50
2018-10-18T16:51:27.612Z,17.50
2018-10-18T16:53:56.825Z,17.50
2018-10-18T16:56:25.885Z,17.40
2018-10-18T16:58:55.040Z,17.30
2018-10-18T17:01:24.826Z,17.30
2018-10-18T17:03:53.980Z,17.20
2018-10-18T17:06:23.182Z,17.20
2018-10-18T17:08:52.309Z,17.10
2018-10-18T17:11:21.659Z,17.00
2018-10-18T17:13:50.776Z,17.00
2018-10-18T17:16:19.929Z,16.90
2018-10-18T17:18:49.077Z,16.90
2018-10-18T17:21:18.265Z,16.80
2018-10-18T17:23:47.644Z,16.70
2018-10-18T17:26:16.921Z,16.70
2018-10-18T17:28:45.936Z,16.60
2018-10-18T17:31:15.126Z,16.60
2018-10-18T17:33:44.344Z,16.50
2018-10-18T17:36:13.563Z,16.40
2018-10-18T17:38:42.764Z,16.40
2018-10-18T17:41:11.889Z,16.30
2018-10-18T17:43:41.105Z,16.30
2018-10-18T17:46:10.266Z,16.20
2018-10-18T17:48:39.442Z,16.10
2018-10-18T17:51:08.537Z,16.00
2018-10-18T17:53:37.700Z,15.90
2018-10-18T17:56:07.455Z,15.80
2018-10-18T17:58:36.913Z,15.70
2018-10-18T18:01:06.201Z,15.60
2018-10-18T18:03:35.364Z,15.50
2018-10-18T18:06:04.948Z,15.30
2018-10-18T18:08:34.117Z,15.20
2018-10-18T18:11:03.269Z,15.00
2018-10-18T18:13:32.525Z,14.90
2018-10-18T18:16:01.668Z,14.90
2018-10-18T18:18:30.828Z,14.80
2018-10-18T18:21:00.012Z,14.70
2018-10-18T18:23:29.139Z,14.70
2018-10-18T18:25:58.305Z,14.60
2018-10-18T18:28:27.402Z,14.50
2018-10-18T18:30:56.530Z,14.50
2018-10-18T18:33:25.964Z,14.40
2018-10-18T18:35:55.110Z,14.30
2018-10-18T18:38:24.224Z,14.30
2018-10-18T18:40:53.404Z,14.20
2018-10-18T18:43:22.496Z,14.20
2018-10-18T18:45:51.605Z,14.10
2018-10-18T18:48:20.704Z,14.10
2018-10-18T18:50:49.838Z,14.00
2018-10-18T18:53:18.946Z,13.90
2018-10-18T18:55:48.031Z,13.90
2018-10-18T18:58:17.160Z,13.90
2018-10-18T19:00:46.280Z,13.80
2018-10-18T19:03:15.551Z,13.70
2018-10-18T19:05:44.769Z,13.70
2018-10-18T19:08:14.434Z,13.60
2018-10-18T19:10:43.600Z,13.50
2018-10-18T19:13:12.791Z,13.60
2018-10-18T19:15:41.990Z,13.60
2018-10-18T19:18:11.109Z,13.50
2018-10-18T19:20:40.428Z,13.50
2018-10-18T19:23:09.620Z,13.40
2018-10-18T19:25:38.677Z,13.40
2018-10-18T19:28:07.872Z,13.40
2018-10-18T19:30:36.981Z,13.40
2018-10-18T19:33:06.216Z,13.40
2018-10-18T19:35:35.332Z,13.40
2018-10-18T19:38:04.557Z,13.30
2018-10-18T19:40:33.760Z,13.30
2018-10-18T19:43:02.884Z,13.20
2018-10-18T19:45:32.074Z,13.20
2018-10-18T19:48:01.141Z,13.10
2018-10-18T19:50:30.236Z,13.10
2018-10-18T19:52:59.390Z,13.00
2018-10-18T19:55:28.688Z,12.90
2018-10-18T19:57:57.820Z,12.80
2018-10-18T20:00:26.947Z,12.80
2018-10-18T20:02:56.294Z,12.80
2018-10-18T20:05:25.396Z,12.70
2018-10-18T20:07:55.004Z,12.70
2018-10-18T20:10:24.064Z,12.70
2018-10-18T20:12:53.454Z,12.60
2018-10-18T20:15:22.523Z,12.60
2018-10-18T20:17:51.689Z,12.50
2018-10-18T20:20:20.817Z,12.60
2018-10-18T20:22:50.341Z,12.50
2018-10-18T20:25:19.518Z,12.40
2018-10-18T20:27:48.600Z,12.50
2018-10-18T20:30:17.822Z,12.30
2018-10-18T20:32:46.892Z,12.30
2018-10-18T20:35:16.011Z,12.30
2018-10-18T20:37:45.108Z,12.30
2018-10-18T20:40:15.428Z,12.30
2018-10-18T20:42:44.646Z,12.30
2018-10-18T20:45:19.004Z,12.30
2018-10-18T20:47:48.307Z,12.20
2018-10-18T20:50:17.308Z,12.20
2018-10-18T20:52:46.948Z,12.10
2018-10-18T20:55:16.075Z,12.10
2018-10-18T20:57:45.243Z,12.00
2018-10-18T21:00:14.517Z,12.00
2018-10-18T21:02:43.808Z,12.00
2018-10-18T21:05:12.937Z,12.00
2018-10-18T21:07:42.056Z,12.00
2018-10-18T21:10:11.829Z,12.00
2018-10-18T21:12:40.934Z,12.00
2018-10-18T21:15:10.119Z,12.00
2018-10-18T21:17:39.405Z,11.90
2018-10-18T21:20:08.977Z,11.90
2018-10-18T21:22:38.141Z,11.90
2018-10-18T21:25:07.501Z,11.90
2018-10-18T21:27:37.095Z,11.90
2018-10-18T21:30:07.432Z,11.90
2018-10-18T21:32:37.230Z,11.80
2018-10-18T21:35:06.607Z,11.80
2018-10-18T21:37:35.674Z,11.80
2018-10-18T21:40:04.836Z,11.80
2018-10-18T21:42:33.992Z,11.80
2018-10-18T21:45:04.018Z,11.70
2018-10-18T21:47:33.272Z,11.70
2018-10-18T21:50:02.368Z,11.70
2018-10-18T21:52:31.460Z,11.70
2018-10-18T21:55:00.572Z,11.60
2018-10-18T21:57:30.263Z,11.60
2018-10-18T21:59:59.704Z,11.60
2018-10-18T22:02:28.796Z,11.50
2018-10-18T22:04:57.954Z,11.50
2018-10-18T22:07:27.572Z,11.40
2018-10-18T22:09:56.733Z,11.40
2018-10-18T22:12:26.297Z,11.50
2018-10-18T22:14:55.422Z,11.40
2018-10-18T22:17:24.509Z,11.40
2018-10-18T22:19:53.652Z,11.40
2018-10-18T22:22:22.785Z,11.30
2018-10-18T22:24:52.396Z,11.30
2018-10-18T22:27:21.552Z,11.30
2018-10-18T22:29:50.673Z,11.30
2018-10-18T22:32:19.821Z,11.30
2018-10-18T22:34:48.972Z,11.30
2018-10-18T22:37:18.121Z,11.30
2018-10-18T22:39:47.220Z,11.30
2018-10-18T22:42:16.847Z,11.30
2018-10-18T22:44:45.969Z,11.30
2018-10-18T22:47:15.058Z,11.40
2018-10-18T22:49:44.192Z,11.40
2018-10-18T22:52:13.357Z,11.40
2018-10-18T22:54:42.561Z,11.40
2018-10-18T22:57:11.776Z,11.40
2018-10-18T22:59:40.894Z,11.50
2018-10-18T23:02:10.501Z,11.50
2018-10-18T23:04:39.592Z,11.40
2018-10-18T23:07:08.757Z,11.40
2018-10-18T23:09:38.884Z,11.40
2018-10-18T23:12:08.014Z,11.40
2018-10-18T23:14:37.095Z,11.40
2018-10-18T23:17:06.971Z,11.40
2018-10-18T23:19:36.069Z,11.30
2018-10-18T23:22:06.965Z,11.30
2018-10-18T23:24:38.096Z,11.30
2018-10-18T23:27:08.782Z,11.30
2018-10-18T23:29:38.961Z,11.20
2018-10-18T23:32:09.067Z,11.20
2018-10-18T23:34:38.198Z,11.20
2018-10-18T23:37:07.293Z,11.10
2018-10-18T23:39:36.428Z,11.10
2018-10-18T23:42:06.556Z,11.10
2018-10-18T23:44:35.728Z,11.10
2018-10-18T23:47:05.836Z,11.00
2018-10-18T23:49:34.909Z,10.90
2018-10-18T23:52:04.017Z,11.00
2018-10-18T23:54:33.245Z,10.90
2018-10-18T23:57:02.427Z,10.90
2018-10-18T23:59:31.452Z,10.90
